createdAt,value
2018-02-09T00:00:11.455Z,5.37
2018-02-09T00:01:21.290Z,5.31
2018-02-09T00:02:31.516Z,5.42
2018-02-09T00:03:41.300Z,5.34
2018-02-09T00:04:51.090Z,5.24
2018-02-09T00:06:00.621Z,5.28
2018-02-09T00:07:10.208Z,5.28
2018-02-09T00:08:20.892Z,5.2
2018-02-09T00:09:30.688Z,5.18
2018-02-09T00:10:40.739Z,5.33
2018-02-09T00:11:50.786Z,5.23
2018-02-09T00:13:00.844Z,5.31
2018-02-09T00:14:10.888Z,5.23
2018-02-09T00:15:20.416Z,5.24
2018-02-09T00:16:30.471Z,5.3
2018-02-09T00:17:40.284Z,5.34
2018-02-09T00:18:50.353Z,5.28
2018-02-09T00:20:00.400Z,5.27
2018-02-09T00:21:09.927Z,5.23
2018-02-09T00:22:20.041Z,5.23
2018-02-09T00:23:30.085Z,5.2
2018-02-09T00:24:40.139Z,5.23
2018-02-09T00:25:50.182Z,5.33
2018-02-09T00:27:00.243Z,5.31
2018-02-09T00:28:10.289Z,5.39
2018-02-09T00:29:20.072Z,5.23
2018-02-09T00:30:29.860Z,5.33
2018-02-09T00:31:39.928Z,5.24
2018-02-09T00:32:49.709Z,5.2
2018-02-09T00:33:59.768Z,5.24
2018-02-09T00:35:09.820Z,5.2
2018-02-09T00:36:19.928Z,5.21
2018-02-09T00:37:29.727Z,5.23
2018-02-09T00:38:39.520Z,5.27
2018-02-09T00:39:49.573Z,5.2
2018-02-09T00:40:59.619Z,5.21
2018-02-09T00:42:09.496Z,5.26
2018-02-09T00:43:19.283Z,5.18
2018-02-09T00:44:29.114Z,5.16
2018-02-09T00:45:39.148Z,5.13
2018-02-09T00:46:49.181Z,5.16
2018-02-09T00:47:59.240Z,5.15
2018-02-09T00:49:09.291Z,5.1
2018-02-09T00:50:19.335Z,5.12
2018-02-09T00:51:29.380Z,5.06
2018-02-09T00:52:39.406Z,5.15
2018-02-09T00:53:49.240Z,5.12
2018-02-09T00:54:59.013Z,5.13
2018-02-09T00:56:08.793Z,5.06
2018-02-09T00:57:18.842Z,5.12
2018-02-09T00:58:28.892Z,5.12
2018-02-09T00:59:38.940Z,5.02
2018-02-09T01:00:49.009Z,5.12
2018-02-09T01:01:58.796Z,5.09
2018-02-09T01:03:08.585Z,5.05
2018-02-09T01:04:18.365Z,5.16
2018-02-09T01:05:28.207Z,5.16
2018-02-09T01:06:38.264Z,5.08
2018-02-09T01:07:48.059Z,5.06
2018-02-09T01:08:57.839Z,5.16
2018-02-09T01:10:07.668Z,5.1
2018-02-09T01:11:17.456Z,4.97
2018-02-09T01:12:27.737Z,5.05
2018-02-09T01:13:37.784Z,5.1
2018-02-09T01:14:47.571Z,5.05
2018-02-09T01:15:57.633Z,5.15
2018-02-09T01:17:07.167Z,5.27
2018-02-09T01:18:17.197Z,5.27
2018-02-09T01:19:27.236Z,5.18
2018-02-09T01:20:37.266Z,5.12
2018-02-09T01:21:47.046Z,5.16
2018-02-09T01:22:56.884Z,5.3
2018-02-09T01:24:06.927Z,5.2
2018-02-09T01:25:16.989Z,5.09
2018-02-09T01:26:26.776Z,5.15
2018-02-09T01:27:36.544Z,5.21
2018-02-09T01:28:46.597Z,5.18
2018-02-09T01:29:56.637Z,5.09
2018-02-09T01:31:06.688Z,5.15
2018-02-09T01:32:16.481Z,5.09
2018-02-09T01:33:26.591Z,5.12
2018-02-09T01:34:36.635Z,5.08
2018-02-09T01:35:46.673Z,5.08
2018-02-09T01:36:56.714Z,5.09
2018-02-09T01:38:06.786Z,5.03
2018-02-09T01:39:16.819Z,5.06
2018-02-09T01:40:26.916Z,5.13
2018-02-09T01:41:36.717Z,5.1
2018-02-09T01:42:46.514Z,5.03
2018-02-09T01:43:56.600Z,5.06
2018-02-09T01:45:06.482Z,5.13
2018-02-09T01:46:16.518Z,5.09
2018-02-09T01:47:26.555Z,5.03
2018-02-09T01:48:36.601Z,5.08
2018-02-09T01:49:46.668Z,5.09
2018-02-09T01:50:56.731Z,4.98
2018-02-09T01:52:06.513Z,5.06
2018-02-09T01:53:16.553Z,5.1
2018-02-09T01:54:26.601Z,5.08
2018-02-09T01:55:36.661Z,5.06
2018-02-09T01:56:46.705Z,5.06
2018-02-09T01:57:56.762Z,5.1
2018-02-09T01:59:06.838Z,5.2
2018-02-09T02:00:16.896Z,5.18
2018-02-09T02:01:26.937Z,5.13
2018-02-09T02:02:37.002Z,5.16
2018-02-09T02:03:46.794Z,5.16
2018-02-09T02:04:56.846Z,5.13
2018-02-09T02:06:06.629Z,5.06
2018-02-09T02:07:16.674Z,5.06
2018-02-09T02:08:26.716Z,5
2018-02-09T02:09:36.826Z,5.05
2018-02-09T02:10:46.601Z,5.1
2018-02-09T02:11:56.642Z,5.05
2018-02-09T02:13:06.423Z,5.05
2018-02-09T02:14:16.467Z,5.08
2018-02-09T02:15:26.241Z,5.06
2018-02-09T02:16:35.764Z,5.13
2018-02-09T02:17:45.806Z,5.13
2018-02-09T02:18:55.681Z,5.09
2018-02-09T02:20:05.473Z,5.12
2018-02-09T02:21:15.521Z,5.03
2018-02-09T02:22:25.713Z,5.06
2018-02-09T02:23:35.769Z,5.02
2018-02-09T02:24:45.811Z,5.1
2018-02-09T02:25:55.594Z,5.09
2018-02-09T02:27:05.111Z,5.1
2018-02-09T02:28:15.161Z,5.08
2018-02-09T02:29:24.684Z,5.16
2018-02-09T02:30:34.734Z,5.1
2018-02-09T02:31:44.779Z,5
2018-02-09T02:32:54.846Z,5.02
2018-02-09T02:34:04.899Z,4.98
2018-02-09T02:35:14.951Z,4.98
2018-02-09T02:36:24.989Z,5.02
2018-02-09T02:37:35.035Z,4.97
2018-02-09T02:38:45.121Z,5.03
2018-02-09T02:39:55.160Z,5.03
2018-02-09T02:41:05.210Z,5.03
2018-02-09T02:42:14.749Z,5.09
2018-02-09T02:43:24.803Z,5.05
2018-02-09T02:44:34.598Z,5.15
2018-02-09T02:45:44.627Z,5.05
2018-02-09T02:46:54.691Z,5.05
2018-02-09T02:48:04.476Z,5.09
2018-02-09T02:49:14.527Z,5.06
2018-02-09T02:50:24.627Z,5
2018-02-09T02:51:34.672Z,5.06
2018-02-09T02:52:43.943Z,5.13
2018-02-09T02:53:54.005Z,5.15
2018-02-09T02:55:04.050Z,5.08
2018-02-09T02:56:14.105Z,5.1
2018-02-09T02:57:24.187Z,5.09
2018-02-09T02:58:34.225Z,5.08
2018-02-09T02:59:44.026Z,5.06
2018-02-09T03:00:54.087Z,5.02
2018-02-09T03:02:03.871Z,5.08
2018-02-09T03:03:13.912Z,5.02
2018-02-09T03:35:14.049Z,2.4
2018-02-09T03:36:24.083Z,2.36
2018-02-09T03:37:33.867Z,2.34
2018-02-09T03:38:43.897Z,2.4
2018-02-09T03:39:53.691Z,2.45
2018-02-09T03:41:03.785Z,2.58
2018-02-09T03:42:13.827Z,2.66
2018-02-09T03:43:23.616Z,2.73
2018-02-09T03:44:33.656Z,2.88
2018-02-09T03:45:43.690Z,3.09
2018-02-09T03:46:53.480Z,3.21
2018-02-09T03:48:03.271Z,3.43
2018-02-09T03:49:13.305Z,3.48
2018-02-09T03:50:23.359Z,3.69
2018-02-09T03:51:33.404Z,3.76
2018-02-09T03:52:43.226Z,3.93
2018-02-09T03:53:53.282Z,4.02
2018-02-09T03:55:03.326Z,4.15
2018-02-09T03:56:13.384Z,4.24
2018-02-09T03:57:23.422Z,4.32
2018-02-09T03:58:33.467Z,4.33
2018-02-09T03:59:42.996Z,4.47
2018-02-09T04:00:52.781Z,4.54
2018-02-09T04:02:02.560Z,4.6
2018-02-09T04:03:12.609Z,4.68
2018-02-09T04:04:22.637Z,4.72
2018-02-09T04:05:32.725Z,4.68
2018-02-09T04:06:42.515Z,4.74
2018-02-09T04:07:52.311Z,4.75
2018-02-09T04:09:02.104Z,4.85
2018-02-09T04:10:11.644Z,4.74
2018-02-09T04:11:21.706Z,4.85
2018-02-09T04:12:31.753Z,4.79
2018-02-09T04:13:41.294Z,4.87
2018-02-09T04:14:51.331Z,5
2018-02-09T04:16:01.175Z,5.05
2018-02-09T04:17:11.211Z,5.06
2018-02-09T04:18:21.239Z,5.05
2018-02-09T04:19:31.275Z,5.06
2018-02-09T04:20:41.301Z,5
2018-02-09T04:21:51.096Z,4.98
2018-02-09T04:23:01.141Z,5
2018-02-09T04:24:10.673Z,5
2018-02-09T04:25:20.733Z,5
2018-02-09T04:26:30.520Z,5.08
2018-02-09T04:27:40.572Z,4.97
2018-02-09T04:28:50.605Z,4.92
2018-02-09T04:30:00.400Z,4.91
2018-02-09T04:31:10.438Z,4.92
2018-02-09T04:32:20.483Z,4.84
2018-02-09T04:33:30.542Z,5
2018-02-09T04:34:40.320Z,5.03
2018-02-09T04:35:50.360Z,5.02
2018-02-09T04:37:00.402Z,5.02
2018-02-09T04:38:10.439Z,5.08
2018-02-09T04:39:20.499Z,4.97
2018-02-09T04:40:30.541Z,4.9
2018-02-09T04:41:40.323Z,5.02
2018-02-09T04:42:50.365Z,4.84
2018-02-09T04:44:00.157Z,4.87
2018-02-09T04:45:10.204Z,4.94
2018-02-09T04:46:20.265Z,4.88
2018-02-09T04:47:30.315Z,4.95
2018-02-09T04:48:40.359Z,4.94
2018-02-09T04:49:50.175Z,4.84
2018-02-09T04:51:00.212Z,4.85
2018-02-09T04:52:10.251Z,4.83
2018-02-09T04:53:20.295Z,4.88
2018-02-09T04:54:30.327Z,4.79
2018-02-09T04:55:40.415Z,4.84
2018-02-09T04:56:50.469Z,4.88
2018-02-09T04:58:00.498Z,4.83
2018-02-09T04:59:10.553Z,4.87
2018-02-09T05:00:20.336Z,4.84
2018-02-09T05:01:30.133Z,4.91
2018-02-09T05:02:40.237Z,4.94
2018-02-09T05:03:50.274Z,4.92
2018-02-09T05:05:00.342Z,4.87
2018-02-09T05:06:10.389Z,4.95
2018-02-09T05:07:20.163Z,5.03
2018-02-09T05:08:30.204Z,4.97
2018-02-09T05:09:40.236Z,4.97
2018-02-09T05:10:50.036Z,5
2018-02-09T05:12:00.083Z,5
2018-02-09T05:13:10.133Z,4.97
2018-02-09T05:14:20.202Z,5.08
2018-02-09T05:15:30.277Z,4.95
2018-02-09T05:16:40.314Z,5.05
2018-02-09T05:17:50.358Z,4.98
2018-02-09T05:19:00.144Z,4.92
2018-02-09T05:20:10.241Z,4.9
2018-02-09T05:21:19.752Z,4.85
2018-02-09T05:22:29.541Z,4.84
2018-02-09T05:23:39.598Z,4.85
2018-02-09T05:24:49.619Z,4.85
2018-02-09T05:25:59.391Z,4.76
2018-02-09T05:27:09.435Z,4.87
2018-02-09T05:28:19.230Z,5
2018-02-09T05:29:29.277Z,5.05
2018-02-09T05:30:39.307Z,5.03
2018-02-09T05:31:49.112Z,5.03
2018-02-09T05:32:58.895Z,5.02
2018-02-09T05:34:08.740Z,4.92
2018-02-09T05:35:18.780Z,5
2018-02-09T05:36:28.830Z,4.97
2018-02-09T05:37:38.620Z,4.95
2018-02-09T05:38:48.410Z,4.83
2018-02-09T05:39:58.471Z,4.87
2018-02-09T05:41:08.312Z,4.92
2018-02-09T05:42:18.354Z,4.84
2018-02-09T05:43:28.418Z,4.84
2018-02-09T05:44:38.467Z,4.88
2018-02-09T05:45:48.249Z,4.84
2018-02-09T05:46:58.280Z,4.95
2018-02-09T05:48:08.330Z,4.79
2018-02-09T05:49:18.370Z,4.94
2018-02-09T05:50:28.194Z,5
2018-02-09T05:51:37.974Z,4.9
2018-02-09T05:52:48.010Z,4.94
2018-02-09T05:53:57.783Z,4.85
2018-02-09T05:55:07.828Z,4.9
2018-02-09T05:56:17.863Z,4.83
2018-02-09T05:57:27.644Z,4.79
2018-02-09T05:58:37.688Z,4.91
2018-02-09T05:59:47.720Z,4.83
2018-02-09T06:00:57.766Z,4.91
2018-02-09T06:02:07.563Z,4.98
2018-02-09T06:03:17.597Z,5.06
2018-02-09T06:04:27.661Z,4.97
2018-02-09T06:05:37.699Z,5.02
2018-02-09T06:06:47.485Z,5
2018-02-09T06:07:57.582Z,5.02
2018-02-09T06:09:07.625Z,5.05
2018-02-09T06:10:17.671Z,4.91
2018-02-09T06:11:27.192Z,4.97
2018-02-09T06:12:37.245Z,5.06
2018-02-09T06:13:47.292Z,5.02
2018-02-09T06:14:57.073Z,5.05
2018-02-09T06:16:06.867Z,4.92
2018-02-09T06:17:16.646Z,4.95
2018-02-09T06:18:26.684Z,4.95
2018-02-09T06:19:36.737Z,5.06
2018-02-09T06:20:46.253Z,5.05
2018-02-09T06:21:56.301Z,5.03
2018-02-09T06:23:06.352Z,5.06
2018-02-09T06:24:16.405Z,4.98
2018-02-09T06:25:26.174Z,4.91
2018-02-09T06:26:36.200Z,5
2018-02-09T06:27:46.246Z,5.06
2018-02-09T06:28:56.289Z,5.09
2018-02-09T06:30:06.343Z,5.12
2018-02-09T06:31:15.878Z,5.2
2018-02-09T06:32:25.408Z,5.06
2018-02-09T06:33:35.435Z,5.09
2018-02-09T06:34:45.479Z,5.23
2018-02-09T06:35:55.614Z,5.26
2018-02-09T06:37:05.662Z,5.16
2018-02-09T06:38:15.713Z,5.2
2018-02-09T06:39:25.768Z,5.2
2018-02-09T06:40:35.558Z,5.08
2018-02-09T06:41:45.583Z,5.1
2018-02-09T06:42:55.117Z,5.12
2018-02-09T06:44:05.161Z,5.13
2018-02-09T06:45:15.191Z,5.18
2018-02-09T06:46:25.236Z,5.28
2018-02-09T06:47:35.015Z,5.16
2018-02-09T06:48:45.064Z,5.08
2018-02-09T06:49:55.100Z,5.12
2018-02-09T06:51:05.155Z,5.26
2018-02-09T06:52:14.940Z,5.24
2018-02-09T06:53:24.987Z,5.23
2018-02-09T06:54:35.058Z,5.21
2018-02-09T06:55:45.181Z,5.13
2018-02-09T06:56:55.229Z,5.23
2018-02-09T06:58:05.308Z,5.24
2018-02-09T06:59:15.368Z,5.28
2018-02-09T07:00:25.183Z,5.23
2018-02-09T07:01:34.970Z,5.23
2018-02-09T07:02:44.999Z,5.31
2018-02-09T07:03:54.551Z,5.28
2018-02-09T07:05:04.595Z,5.34
2018-02-09T07:06:14.368Z,5.33
2018-02-09T07:07:24.144Z,5.28
2018-02-09T07:08:33.966Z,5.34
2018-02-09T07:09:43.756Z,5.37
2018-02-09T07:10:53.807Z,5.37
2018-02-09T07:12:03.841Z,5.37
2018-02-09T07:13:13.900Z,5.42
2018-02-09T07:14:23.965Z,5.45
2018-02-09T07:15:34.022Z,5.51
2018-02-09T07:16:44.065Z,5.63
2018-02-09T07:17:53.852Z,5.57
2018-02-09T07:19:03.909Z,5.62
2018-02-09T07:20:13.967Z,5.69
2018-02-09T07:21:23.747Z,5.75
2018-02-09T07:22:33.789Z,5.73
2018-02-09T07:23:43.844Z,5.78
2018-02-09T07:24:53.392Z,5.84
2018-02-09T07:26:03.180Z,5.87
2018-02-09T07:27:13.222Z,5.82
2018-02-09T07:28:23.268Z,5.85
2018-02-09T07:29:33.063Z,5.84
2018-02-09T07:30:43.108Z,5.85
2018-02-09T07:31:52.904Z,5.81
2018-02-09T07:33:02.947Z,5.81
2018-02-09T07:34:13.003Z,5.84
2018-02-09T07:35:22.520Z,5.87
2018-02-09T07:36:32.565Z,5.88
2018-02-09T07:37:42.344Z,5.85
2018-02-09T07:38:52.382Z,5.85
2018-02-09T07:40:02.450Z,6.02
2018-02-09T07:41:12.522Z,6
2018-02-09T07:42:22.859Z,6.03
2018-02-09T07:43:32.896Z,6.17
2018-02-09T07:44:42.941Z,6.09
2018-02-09T07:45:52.996Z,6.17
2018-02-09T07:47:03.039Z,6.17
2018-02-09T07:48:12.822Z,6.26
2018-02-09T07:49:22.944Z,6.2
2018-02-09T07:50:33.007Z,6.26
2018-02-09T07:51:43.060Z,6.21
2018-02-09T07:52:52.847Z,6.28
2018-02-09T07:54:02.631Z,6.28
2018-02-09T07:55:12.424Z,6.37
2018-02-09T07:56:22.203Z,6.52
2018-02-09T07:57:32.247Z,6.44
2018-02-09T07:58:42.289Z,6.43
2018-02-09T07:59:52.386Z,6.49
2018-02-09T08:01:02.185Z,6.58
2018-02-09T08:02:12.225Z,6.55
2018-02-09T08:03:22.273Z,6.72
2018-02-09T08:04:32.303Z,6.76
2018-02-09T08:05:42.346Z,6.8
2018-02-09T08:06:52.392Z,6.83
2018-02-09T08:08:02.429Z,6.94
2018-02-09T08:09:12.487Z,7
2018-02-09T08:10:22.501Z,6.98
2018-02-09T08:11:32.541Z,7
2018-02-09T08:12:42.597Z,6.98
2018-02-09T08:13:52.638Z,6.98
2018-02-09T08:15:02.680Z,7.04
2018-02-09T08:16:12.732Z,7.19
2018-02-09T08:17:22.777Z,7.16
2018-02-09T08:18:32.811Z,7.12
2018-02-09T08:19:42.859Z,7.09
2018-02-09T08:20:52.638Z,7.11
2018-02-09T08:22:02.431Z,7.13
2018-02-09T08:23:12.477Z,7.16
2018-02-09T08:24:22.652Z,7.21
2018-02-09T08:25:32.689Z,7.36
2018-02-09T08:26:42.729Z,7.39
2018-02-09T08:27:52.771Z,7.39
2018-02-09T08:29:02.564Z,7.51
2018-02-09T08:30:12.648Z,7.49
2018-02-09T08:31:22.703Z,7.56
2018-02-09T08:32:32.750Z,7.67
2018-02-09T08:33:42.546Z,7.7
2018-02-09T08:34:52.335Z,7.71
2018-02-09T08:36:02.426Z,7.77
2018-02-09T08:37:12.472Z,7.85
2018-02-09T08:38:22.520Z,7.85
2018-02-09T08:39:32.569Z,7.88
2018-02-09T08:40:42.438Z,7.93
2018-02-09T08:41:52.496Z,7.91
2018-02-09T08:43:02.542Z,7.96
2018-02-09T08:44:12.083Z,7.98
2018-02-09T08:45:22.125Z,7.98
2018-02-09T08:46:31.957Z,7.99
2018-02-09T08:47:42.011Z,7.96
2018-02-09T08:48:52.058Z,8.06
2018-02-09T08:50:02.099Z,8.25
2018-02-09T08:51:12.144Z,8.22
2018-02-09T08:52:21.922Z,8.21
2018-02-09T08:53:31.715Z,8.16
2018-02-09T08:54:41.760Z,8.13
2018-02-09T08:55:51.821Z,8.17
2018-02-09T08:57:01.342Z,8.19
2018-02-09T08:58:11.390Z,8.16
2018-02-09T08:59:21.227Z,8.22
2018-02-09T09:00:31.317Z,8.31
2018-02-09T09:01:41.104Z,8.24
2018-02-09T09:02:51.152Z,8.17
2018-02-09T09:04:00.993Z,8.35
2018-02-09T09:05:10.769Z,8.31
2018-02-09T09:06:20.548Z,8.39
2018-02-09T09:07:30.582Z,8.43
2018-02-09T09:08:40.627Z,8.61
2018-02-09T09:09:50.152Z,8.62
2018-02-09T09:11:00.196Z,8.71
2018-02-09T09:12:10.242Z,8.69
2018-02-09T09:13:20.287Z,8.72
2018-02-09T09:14:30.339Z,8.82
2018-02-09T09:15:40.397Z,8.82
2018-02-09T09:16:50.177Z,9
2018-02-09T09:18:00.210Z,9.01
2018-02-09T09:19:10.271Z,9.16
2018-02-09T09:20:20.340Z,9.19
2018-02-09T09:21:30.391Z,9.24
2018-02-09T09:22:40.450Z,9.2
2018-02-09T09:23:50.495Z,9.23
2018-02-09T09:25:00.285Z,9.41
2018-02-09T09:26:10.344Z,9.34
2018-02-09T09:27:20.388Z,9.41
2018-02-09T09:28:30.440Z,9.37
2018-02-09T09:29:40.227Z,9.38
2018-02-09T09:30:50.310Z,9.48
2018-02-09T09:32:00.355Z,9.56
2018-02-09T09:33:09.869Z,9.5
2018-02-09T09:34:19.938Z,9.52
2018-02-09T09:35:29.989Z,9.44
2018-02-09T09:36:40.053Z,9.42
2018-02-09T09:37:49.866Z,9.34
2018-02-09T09:38:59.975Z,9.29
2018-02-09T09:40:10.018Z,9.17
2018-02-09T09:41:20.140Z,9.09
2018-02-09T09:42:30.176Z,9.12
2018-02-09T09:43:40.224Z,9.14
2018-02-09T09:44:50.394Z,9.17
2018-02-09T09:46:00.186Z,9.16
2018-02-09T09:47:10.247Z,9.19
2018-02-09T09:48:20.306Z,9.23
2018-02-09T09:49:30.355Z,9.3
2018-02-09T09:50:40.419Z,9.32
2018-02-09T09:51:50.514Z,9.42
2018-02-09T09:53:00.321Z,9.6
2018-02-09T09:54:10.369Z,9.66
2018-02-09T09:55:20.476Z,9.67
2018-02-09T09:56:30.267Z,9.82
2018-02-09T09:57:40.075Z,9.89
2018-02-09T09:58:50.176Z,9.84
2018-02-09T10:00:00.232Z,9.95
2018-02-09T10:01:10.388Z,10.02
2018-02-09T10:02:20.491Z,9.95
2018-02-09T10:03:30.296Z,9.95
2018-02-09T10:04:40.379Z,10.02
2018-02-09T10:05:50.438Z,10.03
2018-02-09T10:07:00.500Z,10
2018-02-09T10:08:10.271Z,10.1
2018-02-09T10:09:20.331Z,10.03
2018-02-09T10:10:30.407Z,10.15
2018-02-09T10:11:40.213Z,10.07
2018-02-09T10:12:50.266Z,10.07
2018-02-09T10:14:00.315Z,10.11
2018-02-09T10:15:10.364Z,10.07
2018-02-09T10:16:20.438Z,10.07
2018-02-09T10:17:30.481Z,10.08
2018-02-09T10:18:40.521Z,10.11
2018-02-09T10:19:50.332Z,10.17
2018-02-09T10:21:00.390Z,10.25
2018-02-09T10:22:09.928Z,10.26
2018-02-09T10:23:19.987Z,10.42
2018-02-09T10:24:30.097Z,10.38
2018-02-09T10:25:39.911Z,10.51
2018-02-09T10:26:49.715Z,10.58
2018-02-09T10:27:59.761Z,10.52
2018-02-09T10:29:09.547Z,10.51
2018-02-09T10:30:19.589Z,10.39
2018-02-09T10:31:29.406Z,10.49
2018-02-09T10:32:39.467Z,10.46
2018-02-09T10:33:49.527Z,10.47
2018-02-09T10:34:59.311Z,10.52
2018-02-09T10:36:09.360Z,10.42
2018-02-09T10:37:19.156Z,10.39
2018-02-09T10:38:29.223Z,10.33
2018-02-09T10:39:39.006Z,10.21
2018-02-09T10:40:49.053Z,10.21
2018-02-09T10:41:59.118Z,10.28
2018-02-09T10:43:09.191Z,10.32
2018-02-09T10:44:19.237Z,10.28
2018-02-09T10:45:29.282Z,10.31
2018-02-09T10:46:39.329Z,10.28
2018-02-09T10:47:49.115Z,10.35
2018-02-09T10:48:59.163Z,10.38
2018-02-09T10:50:08.965Z,10.47
2018-02-09T10:51:19.001Z,10.51
2018-02-09T10:52:28.845Z,10.51
2018-02-09T10:53:38.881Z,10.57
2018-02-09T10:54:48.932Z,10.67
2018-02-09T10:55:58.990Z,10.69
2018-02-09T10:57:09.048Z,10.79
2018-02-09T10:58:18.840Z,10.79
2018-02-09T10:59:28.633Z,10.83
2018-02-09T11:00:38.699Z,10.79
2018-02-09T11:01:48.521Z,10.79
2018-02-09T11:02:58.327Z,10.84
2018-02-09T11:04:08.125Z,10.77
2018-02-09T11:05:17.657Z,10.77
2018-02-09T11:06:27.712Z,10.85
2018-02-09T11:07:37.750Z,10.75
2018-02-09T11:08:47.802Z,10.79
2018-02-09T11:09:57.863Z,10.75
2018-02-09T11:11:07.386Z,10.79
2018-02-09T11:12:17.526Z,10.76
2018-02-09T11:13:27.569Z,10.75
2018-02-09T11:14:37.108Z,10.79
2018-02-09T11:15:47.161Z,10.87
2018-02-09T11:16:57.288Z,10.83
2018-02-09T11:18:07.330Z,10.72
2018-02-09T11:19:17.384Z,10.66
2018-02-09T11:20:27.199Z,10.65
2018-02-09T11:21:36.992Z,10.52
2018-02-09T11:22:47.095Z,10.46
2018-02-09T11:23:57.134Z,10.39
2018-02-09T11:25:07.216Z,10.39
2018-02-09T11:26:17.289Z,10.42
2018-02-09T11:27:28.351Z,10.39
2018-02-09T11:28:38.401Z,10.41
2018-02-09T11:29:48.606Z,10.44
2018-02-09T11:30:58.663Z,10.42
2018-02-09T11:32:08.241Z,10.36
2018-02-09T11:33:18.307Z,10.28
2018-02-09T11:34:28.361Z,10.21
2018-02-09T11:35:38.161Z,10.03
2018-02-09T11:36:47.702Z,10.11
2018-02-09T11:37:57.553Z,10.02
2018-02-09T11:39:07.599Z,10.07
2018-02-09T11:40:17.708Z,10.13
2018-02-09T11:41:27.763Z,10.11
2018-02-09T11:42:37.324Z,10.05
2018-02-09T11:43:47.381Z,9.96
2018-02-09T11:44:57.461Z,9.98
2018-02-09T11:46:07.248Z,9.95
2018-02-09T11:47:17.302Z,9.89
2018-02-09T11:48:27.089Z,9.74
2018-02-09T11:49:36.944Z,9.64
2018-02-09T11:50:47.046Z,9.57
2018-02-09T11:51:57.091Z,9.52
2018-02-09T11:53:07.153Z,9.5
2018-02-09T11:54:17.249Z,9.5
2018-02-09T11:55:27.356Z,9.47
2018-02-09T11:56:37.407Z,9.53
2018-02-09T11:57:47.486Z,9.45
2018-02-09T11:58:57.537Z,9.56
2018-02-09T12:00:07.649Z,9.62
2018-02-09T12:01:17.690Z,9.63
2018-02-09T12:02:27.740Z,9.62
2018-02-09T12:03:37.769Z,9.6
2018-02-09T12:04:47.813Z,9.6
2018-02-09T12:05:57.864Z,9.59
2018-02-09T12:07:07.972Z,9.59
2018-02-09T12:08:18.011Z,9.57
2018-02-09T12:09:27.799Z,9.44
2018-02-09T12:10:37.599Z,9.57
2018-02-09T12:11:47.722Z,9.39
2018-02-09T12:12:57.765Z,9.41
2018-02-09T12:14:07.825Z,9.38
2018-02-09T12:15:17.607Z,9.3
2018-02-09T12:16:27.399Z,9.34
2018-02-09T12:17:37.683Z,9.41
2018-02-09T12:18:47.853Z,9.44
2018-02-09T12:19:57.948Z,9.5
2018-02-09T12:21:07.502Z,9.6
2018-02-09T12:22:17.288Z,9.66
2018-02-09T12:23:27.345Z,9.75
2018-02-09T12:24:37.133Z,9.7
2018-02-09T12:25:47.177Z,9.71
2018-02-09T12:26:56.993Z,9.71
2018-02-09T12:28:07.041Z,9.78
2018-02-09T12:29:17.101Z,9.74
2018-02-09T12:30:27.159Z,9.72
2018-02-09T12:31:37.211Z,9.64
2018-02-09T12:32:46.756Z,9.67
2018-02-09T12:33:56.810Z,9.77
2018-02-09T12:35:06.599Z,9.9
2018-02-09T12:36:16.633Z,9.84
2018-02-09T12:37:26.694Z,9.85
2018-02-09T12:38:36.742Z,9.95
2018-02-09T12:39:46.529Z,10
2018-02-09T12:40:56.585Z,10.11
2018-02-09T12:42:06.653Z,10.23
2018-02-09T12:43:16.516Z,10.32
2018-02-09T12:44:26.629Z,10.32
2018-02-09T12:45:36.698Z,10.23
2018-02-09T12:46:46.474Z,10.25
2018-02-09T12:47:56.272Z,10.33
2018-02-09T12:49:05.822Z,10.32
2018-02-09T12:50:15.891Z,10.23
2018-02-09T12:51:26.010Z,10.23
2018-02-09T12:52:35.811Z,10.23
2018-02-09T12:53:45.881Z,10.14
2018-02-09T12:54:55.735Z,10.03
2018-02-09T12:56:05.533Z,9.98
2018-02-09T12:57:15.587Z,9.85
2018-02-09T12:58:25.372Z,9.85
2018-02-09T12:59:35.408Z,9.8
2018-02-09T13:00:45.465Z,9.77
2018-02-09T13:01:55.253Z,9.81
2018-02-09T13:03:05.314Z,9.7
2018-02-09T13:04:14.851Z,9.74
2018-02-09T13:05:24.907Z,9.72
2018-02-09T13:06:34.980Z,9.64
2018-02-09T13:07:45.035Z,9.63
2018-02-09T13:08:55.733Z,9.59
2018-02-09T13:10:05.773Z,9.55
2018-02-09T13:11:15.836Z,9.62
2018-02-09T13:12:25.872Z,9.78
2018-02-09T13:13:35.956Z,9.81
2018-02-09T13:14:46.016Z,9.99
2018-02-09T13:15:55.823Z,10.11
2018-02-09T13:17:05.359Z,10.1
2018-02-09T13:18:15.221Z,10.13
2018-02-09T13:19:25.290Z,10.25
2018-02-09T13:20:35.350Z,10.32
2018-02-09T13:21:45.398Z,10.23
2018-02-09T13:22:55.460Z,10.26
2018-02-09T13:24:05.516Z,10.36
2018-02-09T13:25:15.585Z,10.41
2018-02-09T13:26:25.399Z,10.39
2018-02-09T13:27:35.455Z,10.33
2018-02-09T13:28:45.517Z,10.23
2018-02-09T13:29:55.571Z,10.21
2018-02-09T13:31:05.367Z,10.08
2018-02-09T13:32:15.415Z,10.02
2018-02-09T13:33:25.469Z,9.84
2018-02-09T13:34:35.515Z,9.84
2018-02-09T13:35:45.575Z,9.72
2018-02-09T13:36:55.650Z,9.63
2018-02-09T13:38:05.443Z,9.47
2018-02-09T13:39:15.256Z,9.38
2018-02-09T13:40:25.046Z,9.27
2018-02-09T13:41:34.849Z,9.19
2018-02-09T13:42:44.890Z,9.16
2018-02-09T13:43:54.810Z,9.19
2018-02-09T13:45:04.866Z,9.12
2018-02-09T13:46:14.908Z,9.05
2018-02-09T13:47:24.955Z,8.98
2018-02-09T13:48:35.025Z,8.92
2018-02-09T13:49:45.137Z,8.87
2018-02-09T13:50:55.205Z,8.79
2018-02-09T13:52:04.995Z,8.71
2018-02-09T13:53:15.056Z,8.76
2018-02-09T13:54:25.120Z,8.6
2018-02-09T13:55:35.209Z,8.46
2018-02-09T13:56:45.004Z,8.43
2018-02-09T13:57:54.791Z,8.49
2018-02-09T13:59:04.903Z,8.46
2018-02-09T14:00:14.954Z,8.46
2018-02-09T14:01:24.745Z,8.47
2018-02-09T14:02:34.825Z,8.49
2018-02-09T14:03:44.647Z,8.4
2018-02-09T14:04:54.704Z,8.36
2018-02-09T14:06:04.757Z,8.21
2018-02-09T14:07:14.807Z,8.29
2018-02-09T14:08:24.339Z,8.39
2018-02-09T14:09:34.398Z,8.43
2018-02-09T14:10:44.525Z,8.42
2018-02-09T14:11:54.319Z,8.49
2018-02-09T14:13:04.383Z,8.44
2018-02-09T14:14:14.472Z,8.54
2018-02-09T14:15:24.531Z,8.46
2018-02-09T14:16:34.585Z,8.36
2018-02-09T14:17:44.456Z,8.16
2018-02-09T14:18:54.532Z,8.13
2018-02-09T14:20:04.617Z,8.01
2018-02-09T14:21:14.675Z,7.99
2018-02-09T14:22:24.734Z,7.88
2018-02-09T14:23:34.823Z,7.78
2018-02-09T14:24:44.916Z,7.73
2018-02-09T14:25:54.709Z,7.71
2018-02-09T14:27:04.499Z,7.56
2018-02-09T14:28:14.546Z,7.64
2018-02-09T14:29:24.336Z,7.52
2018-02-09T14:30:34.309Z,7.47
2018-02-09T14:31:43.845Z,7.48
2018-02-09T14:32:53.919Z,7.48
2018-02-09T14:34:03.972Z,7.37
2018-02-09T14:35:14.039Z,7.36
2018-02-09T14:36:24.120Z,7.51
2018-02-09T14:37:34.179Z,7.54
2018-02-09T14:38:44.284Z,7.58
2018-02-09T14:39:54.340Z,7.61
2018-02-09T14:41:04.396Z,7.49
2018-02-09T14:42:14.458Z,7.45
2018-02-09T14:43:24.526Z,7.39
2018-02-09T14:44:34.576Z,7.33
2018-02-09T14:45:44.373Z,7.26
2018-02-09T14:46:54.423Z,7.16
2018-02-09T14:48:04.481Z,7.08
2018-02-09T14:49:14.273Z,6.98
2018-02-09T14:50:24.382Z,6.94
2018-02-09T14:51:34.418Z,6.78
2018-02-09T14:52:44.202Z,6.64
2018-02-09T14:53:54.250Z,6.68
2018-02-09T14:55:04.050Z,6.58
2018-02-09T14:56:14.095Z,6.52
2018-02-09T14:57:23.630Z,6.43
2018-02-09T14:58:33.706Z,6.49
2018-02-09T14:59:43.764Z,6.44
2018-02-09T15:00:53.830Z,6.31
2018-02-09T15:02:03.627Z,6.28
2018-02-09T15:03:13.682Z,6.25
2018-02-09T15:04:23.742Z,6.26
2018-02-09T15:05:33.866Z,6.1
2018-02-09T15:06:43.680Z,6.2
2018-02-09T15:07:53.529Z,6.03
2018-02-09T15:09:03.604Z,6.05
2018-02-09T15:10:13.120Z,6.03
2018-02-09T15:11:23.251Z,5.96
2018-02-09T15:12:33.504Z,5.99
2018-02-09T15:13:43.568Z,5.92
2018-02-09T15:14:53.356Z,5.92
2018-02-09T15:16:03.406Z,5.92
2018-02-09T15:17:13.460Z,5.82
2018-02-09T15:18:23.273Z,5.85
2018-02-09T15:19:33.325Z,5.78
2018-02-09T15:20:43.132Z,5.78
2018-02-09T15:21:52.917Z,5.67
2018-02-09T15:23:02.991Z,5.62
2018-02-09T15:24:13.086Z,5.69
2018-02-09T15:25:23.148Z,5.55
2018-02-09T15:26:33.200Z,5.69
2018-02-09T15:27:43.266Z,5.69
2018-02-09T15:28:53.121Z,5.51
2018-02-09T15:30:02.979Z,5.6
2018-02-09T15:31:13.078Z,5.57
2018-02-09T15:32:22.589Z,5.59
2018-02-09T15:33:32.137Z,5.57
2018-02-09T15:34:42.181Z,5.52
2018-02-09T15:35:52.244Z,5.51
2018-02-09T15:37:02.281Z,5.48
2018-02-09T15:38:12.077Z,5.44
2018-02-09T15:39:21.880Z,5.45
2018-02-09T15:40:31.946Z,5.46
2018-02-09T15:41:41.989Z,5.37
2018-02-09T15:42:52.033Z,5.36
2018-02-09T15:44:01.827Z,5.34
2018-02-09T15:45:11.610Z,5.45
2018-02-09T15:46:21.678Z,5.37
2018-02-09T15:47:31.474Z,5.2
2018-02-09T15:48:41.538Z,5.23
2018-02-09T15:49:51.637Z,5.13
2018-02-09T15:51:01.490Z,5.18
2018-02-09T15:52:11.610Z,5.1
2018-02-09T15:53:21.440Z,5.05
2018-02-09T15:54:31.481Z,5.09
2018-02-09T15:55:41.544Z,5.05
2018-02-09T15:56:51.585Z,4.97
2018-02-09T15:58:01.628Z,5
2018-02-09T15:59:11.676Z,4.95
2018-02-09T16:00:21.475Z,4.88
2018-02-09T16:01:31.532Z,4.79